SondeTracker

Meteorological Radiosondes Database

Operations

Sounding was ended - last measurement: 2022-12-06 00:54:39z

MAP
About Radiosonde

Number: U2420067

Launch Site: Albemarle (GB)

Type: RS41

AUX: NO

Frequency: 405.100 MHz

Max Speed: 102 km/h at 27038 m

Average Speed: 37.16 km/h

Max Altitude: 27777 m

Average Ascent Speed: 5.32 m/s

Average Descent Speed: 26.61 m/s

Status: UNKNOWN

Status Changes
Launch Site Type AUX Frequency Status Finder Landing Point Description Changes made by
APRS Statistics

Received Frames: 402

First Frame [UTC]: 2022-12-05 23:18:02z

Last Frame [UTC]: 2022-12-06 00:54:39z

Receivers: F5RZC-14, G4VFL-14, GB3EI-15, GURGE2-15, M0VNA-14, M7TDM-1, TODDY2-14

Flight Time: 01:36:37 h

Distance From First Measurement: 51.37 km

Nearest City: Barnard Castle (GB) [2.38 km]

Nearest Hunter: Andy77768 [21.94 km]

Ground Altitude: 194 m

Distance from QTH: 0.00 km

APRS Data
Receiver Number Date/Time [UTC] φ λ Course [°] Speed [km/h] Altitude [m] Description
G4VFL-14U24200672022-12-06 00:54:3954.5499-1.95696181246808Clb=-13.2m/s t=-33.6C h=5.5% 405.10MHz Type=RS41-SG Details on http://radiosondy.info
G4VFL-14U24200672022-12-06 00:54:1054.551-1.95669193267044Clb=-13.3m/s t=-35.4C h=16.0% 405.10MHz Type=RS41-SG Details on http://radiosondy.info
G4VFL-14U24200672022-12-06 00:53:4254.5522-1.95603200317273Clb=-13.3m/s t=-37.0C h=15.1% 405.10MHz Type=RS41-SG batt=2.4V Details on http://radiosondy.info
G4VFL-14U24200672022-12-06 00:53:1854.5533-1.95536196307483Clb=-13.1m/s t=-38.6C h=12.3% 405.10MHz Type=RS41-SG Details on http://radiosondy.info
G4VFL-14U24200672022-12-06 00:51:3654.5587-1.95241201288519Clb=-14.8m/s t=-46.6C h=26.2% 405.10MHz Type=RS41-SG Details on http://radiosondy.info
G4VFL-14U24200672022-12-06 00:51:1854.5596-1.95174199248730Clb=-14.8m/s t=-48.2C h=29.1% 405.10MHz Type=RS41-SG batt=2.4V Details on http://radiosondy.info
G4VFL-14U24200672022-12-06 00:51:0254.5605-1.95119196308956Clb=-14.9m/s t=-49.7C h=33.6% 405.10MHz Type=RS41-SG Details on http://radiosondy.info
G4VFL-14U24200672022-12-06 00:50:4754.5617-1.95084190379168Clb=-14.1m/s t=-51.0C h=26.1% 405.10MHz Type=RS41-SG Details on http://radiosondy.info
G4VFL-14U24200672022-12-06 00:50:3554.563-1.94979218489373Clb=-15.0m/s t=-51.7C h=16.4% 405.10MHz Type=RS41-SG TxOff=8h18m batt=2.4V Details on http://radiosondy.info
G4VFL-14U24200672022-12-06 00:50:1754.5645-1.94782219509602Clb=-14.3m/s t=-53.0C h=22.7% 405.10MHz Type=RS41-SG Details on http://radiosondy.info
G4VFL-14U24200672022-12-06 00:50:0154.5659-1.94566223509824Clb=-15.2m/s t=-54.6C h=29.7% 405.10MHz Type=RS41-SG Details on http://radiosondy.info
G4VFL-14U24200672022-12-06 00:49:4554.5674-1.943382244310065Clb=-16.3m/s t=-55.4C h=23.7% 405.10MHz Type=RS41-SG batt=2.4V Details on http://radiosondy.info
G4VFL-14U24200672022-12-06 00:49:3654.5826-1.924592102414648Clb=-21.7m/s t=-55.3C h=4.1% 405.10MHz Type=RS41-SG Details on http://radiosondy.info
G4VFL-14U24200672022-12-06 00:49:3454.5834-1.923632162814978Clb=-22.3m/s t=-55.6C h=4.0% 405.10MHz Type=RS41-SG batt=2.4V Details on http://radiosondy.info
G4VFL-14U24200672022-12-06 00:49:3354.5844-1.92292022415317Clb=-23.5m/s t=-55.5C h=4.0% 405.10MHz Type=RS41-SG Details on http://radiosondy.info
F5RZC-14U24200672022-12-06 00:49:3254.5856-1.922341452015891Clb=-27.1m/s t=-56.0C h=3.9% 405.10MHz Type=RS41-SG Details on http://radiosondy.info
F5RZC-14U24200672022-12-06 00:49:3154.5863-1.922521852616276Clb=-26.3m/s t=-57.2C h=4.2% 405.10MHz Type=RS41-SG Details on http://radiosondy.info
F5RZC-14U24200672022-12-06 00:49:3054.5873-1.92251743516670Clb=-26.4m/s t=-57.6C h=4.3% 405.10MHz Type=RS41-SG TxOff=8h25m batt=2.4V Details on http://radiosondy.info
F5RZC-14U24200672022-12-06 00:49:2954.5887-1.922331982017071Clb=-26.7m/s t=-57.9C h=4.2% 405.10MHz Type=RS41-SG Details on http://radiosondy.info
TODDY2-14U24200672022-12-06 00:49:2854.5902-1.921341833117637Clb=-28.0m/s calibration 86% 405.10MHz Type=RS41-SG Details on http://radiosondy.info
GB3EI-15U24200672022-12-06 00:49:2254.5914-1.922041684318056Clb=-28.6m/s t=-58.9C h=1.2% p=-1.0hPa 405.101 MHz Type=RS41-SG ser=U2420067 Radiosonde
TODDY2-14U24200672022-12-06 00:49:2154.5915-1.922061753118084Clb=-27.9m/s calibration 86% 405.10MHz Type=RS41-SG Details on http://radiosondy.info
GB3EI-15U24200672022-12-06 00:48:3654.5936-1.920532032418939Clb=-29.3m/s t=-60.6C h=1.2% p=-1.0hPa 405.101 MHz Type=RS41-SG ser=U2420067 Radiosonde
TODDY2-14U24200672022-12-06 00:48:3354.5937-1.920442052818997Clb=-29.7m/s calibration 82% 405.10MHz Type=RS41-SG batt=2.5V Details on http://radiosondy.info
G4VFL-14U24200672022-12-06 00:48:0754.5951-1.919951994419411Clb=-31.6m/s t=-60.9C h=4.9% 405.10MHz Type=RS41-SG Details on http://radiosondy.info
G4VFL-14U24200672022-12-06 00:47:4154.5966-1.919032022819872Clb=-31.3m/s t=-60.9C h=5.1% 405.10MHz Type=RS41-SG Details on http://radiosondy.info
GURGE2-15U24200672022-12-06 00:47:2854.5971-1.91881922220090Clb=-33.0m/s t=-60.2C h=1.2% p=-1.0hPa 405.101 MHz Type=RS41-SG ser=U2420067 Radiosonde
G4VFL-14U24200672022-12-06 00:47:0954.5976-1.918831652020378Clb=-33.7m/s t=-59.5C h=4.5% 405.10MHz Type=RS41-SG batt=2.4V Details on http://radiosondy.info
GB3EI-15U24200672022-12-06 00:46:4354.5984-1.918741871120868Clb=-32.3m/s t=-60.2C h=1.1% p=-1.0hPa 405.101 MHz Type=RS41-SG ser=U2420067 Radiosonde
G4VFL-14U24200672022-12-06 00:46:4254.5984-1.918751691720900Clb=-32.6m/s t=-60.3C h=4.4% 405.10MHz Type=RS41-SG Details on http://radiosondy.info
F5RZC-14U24200672022-12-06 00:46:3354.5985-1.918871382021065Clb=-34.3m/s t=-60.9C h=4.7% 405.10MHz Type=RS41-SG Details on http://radiosondy.info
G4VFL-14U24200672022-12-06 00:46:1354.599-1.919331473321443Clb=-35.7m/s t=-62.1C h=4.9% 405.10MHz Type=RS41-SG Details on http://radiosondy.info
F5RZC-14U24200672022-12-06 00:46:0454.5992-1.919571433921585Clb=-36.4m/s t=-61.9C h=4.9% 405.10MHz Type=RS41-SG batt=2.4V Details on http://radiosondy.info
GB3EI-15U24200672022-12-06 00:45:4754.6-1.920571464321946Clb=-35.6m/s t=-62.6C h=1.2% p=-1.0hPa 405.101 MHz Type=RS41-SG ser=U2420067 Radiosonde
G4VFL-14U24200672022-12-06 00:45:4654.6001-1.920671523721982Clb=-35.5m/s t=-62.7C h=4.8% 405.10MHz Type=RS41-SG batt=2.4V Details on http://radiosondy.info
F5RZC-14U24200672022-12-06 00:45:3954.6004-1.920981513922123Clb=-35.5m/s t=-63.1C h=5.0% 405.10MHz Type=RS41-SG Details on http://radiosondy.info
G4VFL-14U24200672022-12-06 00:45:1954.6013-1.921811554822517Clb=-37.9m/s t=-64.0C h=5.3% 405.10MHz Type=RS41-SG Details on http://radiosondy.info
F5RZC-14U24200672022-12-06 00:45:1154.6017-1.922091636922663Clb=-36.2m/s t=-64.9C h=5.9% 405.10MHz Type=RS41-SG Details on http://radiosondy.info
G4VFL-14U24200672022-12-06 00:44:5454.6031-1.922881605623066Clb=-38.9m/s t=-64.4C h=5.8% 405.10MHz Type=RS41-SG Details on http://radiosondy.info
GURGE2-15U24200672022-12-06 00:44:4354.6038-1.923491434623347Clb=-41.3m/s t=-64.4C h=1.3% p=-1.0hPa 405.101 MHz Type=RS41-SG ser=U2420067 Radiosonde
GB3EI-15U24200672022-12-06 00:44:0054.6068-1.926171456324403Clb=-44.4m/s t=-65.8C h=1.3% p=-1.0hPa 405.101 MHz Type=RS41-SG ser=U2420067 Radiosonde
GURGE2-15U24200672022-12-06 00:43:4854.6076-1.927061506124669Clb=-46.5m/s t=-65.6C h=1.3% p=-1.0hPa 405.101 MHz Type=RS41-SG ser=U2420067 Radiosonde
GB3EI-15U24200672022-12-06 00:43:0354.611-1.930361566125813Clb=-46.6m/s t=-67.1C h=1.4% p=-1.0hPa 405.101 MHz Type=RS41-SG ser=U2420067 Radiosonde
GURGE2-15U24200672022-12-06 00:42:5154.6119-1.931081516726101Clb=-50.0m/s t=-67.3C h=1.4% p=-1.0hPa 405.101 MHz Type=RS41-SG ser=U2420067 Radiosonde
G4VFL-14U24200672022-12-06 00:42:3854.6129-1.932331418726448Clb=-49.0m/s t=-66.4C h=5.8% 405.10MHz Type=RS41-SG TxPastBurst=8h30m batt=2.6V Details on http://radiosondy.info
GB3EI-15U24200672022-12-06 00:42:0254.6161-1.936331407627319Clb=-42.2m/s t=-67.9C h=1.5% p=-1.0hPa 405.101 MHz Type=RS41-SG ser=U2420067 Radiosonde
G4VFL-14U24200672022-12-06 00:42:0154.6161-1.936331418027319Clb=-42.2m/s t=-67.9C h=6.4% 405.10MHz Type=RS41-SG Details on http://radiosondy.info
GURGE2-15U24200672022-12-06 00:41:5054.617-1.937831387827598Clb=-39.1m/s t=-68.0C h=1.5% p=-1.0hPa 405.101 MHz Type=RS41-SG ser=U2420067 Radiosonde
G4VFL-14U24200672022-12-06 00:41:3154.6184-1.940141318027777Clb=5.6m/s t=-68.3C h=6.7% 405.10MHz Type=RS41-SG Details on http://radiosondy.info
GB3EI-15U24200672022-12-06 00:41:0554.6202-1.944041308327683Clb=7.2m/s t=-68.4C h=1.5% p=-1.0hPa 405.101 MHz Type=RS41-SG ser=U2420067 Radiosonde
F5RZC-14U24200672022-12-06 00:40:5954.6204-1.944571268027670Clb=6.3m/s t=-68.3C h=6.6% 405.10MHz Type=RS41-SG batt=2.5V Details on http://radiosondy.info
GURGE2-15U24200672022-12-06 00:40:5254.622-1.947621348527600Clb=5.2m/s t=-68.6C h=1.6% p=-1.0hPa 405.101 MHz Type=RS41-SG ser=U2420067 Radiosonde
G4VFL-14U24200672022-12-06 00:40:3054.6223-1.94841277227580Clb=6.9m/s t=-68.6C h=6.9% 405.10MHz Type=RS41-SG Details on http://radiosondy.info
F5RZC-14U24200672022-12-06 00:40:2754.6225-1.948641277227574Clb=5.6m/s t=-68.6C h=6.9% 405.10MHz Type=RS41-SG Details on http://radiosondy.info
GB3EI-15U24200672022-12-06 00:40:0754.6241-1.951831336727486Clb=4.9m/s t=-68.7C h=1.6% p=-1.0hPa 405.101 MHz Type=RS41-SG ser=U2420067 Radiosonde
G4VFL-14U24200672022-12-06 00:40:0254.6242-1.952041347427480Clb=6.9m/s t=-68.6C h=6.8% 405.10MHz Type=RS41-SG Details on http://radiosondy.info
F5RZC-14U24200672022-12-06 00:40:0154.6242-1.952041347627480Clb=6.9m/s t=-68.6C h=6.8% 405.10MHz Type=RS41-SG Details on http://radiosondy.info
GURGE2-15U24200672022-12-06 00:39:5454.6252-1.95351427627434Clb=7.8m/s t=-68.5C h=1.6% p=-1.0hPa 405.101 MHz Type=RS41-SG ser=U2420067 Radiosonde
G4VFL-14U24200672022-12-06 00:39:3254.6265-1.955361448727374Clb=6.5m/s t=-68.6C h=6.8% 405.10MHz Type=RS41-SG batt=2.5V Details on http://radiosondy.info
GB3EI-15U24200672022-12-06 00:39:1054.629-1.957971478927291Clb=5.1m/s t=-68.8C h=1.6% p=-1.0hPa 405.101 MHz Type=RS41-SG ser=U2420067 Radiosonde
GURGE2-15U24200672022-12-06 00:38:5954.6301-1.959281448127249Clb=7.7m/s t=-68.6C h=1.6% p=-1.0hPa 405.101 MHz Type=RS41-SG ser=U2420067 Radiosonde
GB3EI-15U24200672022-12-06 00:38:1654.6348-1.964181529127089Clb=6.4m/s t=-68.3C h=1.5% p=-1.0hPa 405.101 MHz Type=RS41-SG ser=U2420067 Radiosonde
GURGE2-15U24200672022-12-06 00:38:0554.6365-1.9659114310227038Clb=7.9m/s t=-68.3C h=1.5% p=-1.0hPa 405.101 MHz Type=RS41-SG ser=U2420067 Radiosonde
GB3EI-15U24200672022-12-06 00:37:1254.6412-1.971671469626888Clb=7.3m/s t=-67.8C h=1.5% p=-1.0hPa 405.101 MHz Type=RS41-SG ser=U2420067 Radiosonde
G4VFL-14U24200672022-12-06 00:37:1154.6412-1.971671479826888Clb=7.3m/s t=-67.8C h=6.6% 405.10MHz Type=RS41-SG Details on http://radiosondy.info
GURGE2-15U24200672022-12-06 00:36:5954.6427-1.9733914310026845Clb=7.0m/s t=-67.6C h=1.5% p=-1.0hPa 405.101 MHz Type=RS41-SG ser=U2420067 Radiosonde
G4VFL-14U24200672022-12-06 00:36:3454.6447-1.976341439826777Clb=5.9m/s t=-67.4C h=6.4% 405.10MHz Type=RS41-SG Details on http://radiosondy.info
GB3EI-15U24200672022-12-06 00:36:1054.6471-1.979821408926696Clb=7.2m/s t=-67.5C h=1.5% p=-1.0hPa 405.101 MHz Type=RS41-SG ser=U2420067 Radiosonde
G4VFL-14U24200672022-12-06 00:36:0454.6476-1.980521438326678Clb=6.9m/s t=-67.4C h=6.5% 405.10MHz Type=RS41-SG TxPastBurst=8h30m batt=2.5V Details on http://radiosondy.info
GURGE2-15U24200672022-12-06 00:36:0054.6483-1.981511359426652Clb=5.0m/s t=-67.4C h=1.5% p=-1.0hPa 405.101 MHz Type=RS41-SG ser=U2420067 Radiosonde
G4VFL-14U24200672022-12-06 00:35:4754.6501-1.984411397426579Clb=7.0m/s t=-67.4C h=6.4% 405.10MHz Type=RS41-SG Details on http://radiosondy.info
F5RZC-14U24200672022-12-06 00:35:4654.6502-1.984661367626572Clb=5.9m/s t=-67.4C h=6.5% 405.10MHz Type=RS41-SG TxPastBurst=8h30m batt=2.5V Details on http://radiosondy.info
GB3EI-15U24200672022-12-06 00:35:4054.6519-1.987191347626501Clb=7.3m/s t=-67.4C h=1.5% p=-1.0hPa 405.101 MHz Type=RS41-SG ser=U2420067 Radiosonde
G4VFL-14U24200672022-12-06 00:35:3954.6521-1.987711316926489Clb=4.2m/s t=-67.4C h=6.4% 405.10MHz Type=RS41-SG Details on http://radiosondy.info
F5RZC-14U24200672022-12-06 00:35:3554.6525-1.988421386526472Clb=5.3m/s t=-67.3C h=6.4% 405.10MHz Type=RS41-SG Details on http://radiosondy.info
G4VFL-14U24200672022-12-06 00:35:2054.6541-1.990371375926401Clb=6.3m/s t=-67.5C h=6.3% 405.10MHz Type=RS41-SG batt=2.5V Details on http://radiosondy.info
F5RZC-14U24200672022-12-06 00:35:1654.6544-1.990921425726385Clb=6.7m/s t=-67.5C h=6.3% 405.10MHz Type=RS41-SG Details on http://radiosondy.info
GB3EI-15U24200672022-12-06 00:35:0454.6556-1.992091455926327Clb=5.4m/s t=-67.7C h=1.5% p=-1.0hPa 405.101 MHz Type=RS41-SG ser=U2420067 Radiosonde
G4VFL-14U24200672022-12-06 00:35:0154.656-1.992521426326310Clb=4.0m/s t=-67.8C h=6.2% 405.10MHz Type=RS41-SG Details on http://radiosondy.info
F5RZC-14U24200672022-12-06 00:34:5954.6562-1.992821445926299Clb=6.1m/s t=-68.2C h=6.4% 405.10MHz Type=RS41-SG batt=2.5V Details on http://radiosondy.info
GURGE2-15U24200672022-12-06 00:34:5754.6564-1.993091515726288Clb=5.2m/s t=-68.7C h=1.6% p=-1.0hPa 405.101 MHz Type=RS41-SG ser=U2420067 Radiosonde
G4VFL-14U24200672022-12-06 00:34:4554.6583-1.994211647626219Clb=6.3m/s t=-68.7C h=6.9% 405.10MHz Type=RS41-SG Details on http://radiosondy.info
GB3EI-15U24200672022-12-06 00:34:3754.6605-1.995451597226148Clb=6.6m/s t=-68.7C h=1.6% p=-1.0hPa 405.101 MHz Type=RS41-SG ser=U2420067 Radiosonde
GURGE2-15U24200672022-12-06 00:34:2954.6617-1.99591678126108Clb=6.5m/s t=-69.0C h=1.6% p=-1.0hPa 405.101 MHz Type=RS41-SG ser=U2420067 Radiosonde
GB3EI-15U24200672022-12-06 00:34:0254.6654-1.998681636325963Clb=6.4m/s t=-68.9C h=1.7% p=-1.0hPa 405.101 MHz Type=RS41-SG ser=U2420067 Radiosonde
GURGE2-15U24200672022-12-06 00:33:5654.6664-1.999581416925918Clb=6.1m/s t=-68.6C h=1.7% p=-1.0hPa 405.101 MHz Type=RS41-SG ser=U2420067 Radiosonde
G4VFL-14U24200672022-12-06 00:33:3754.6688-2.002451426525808Clb=6.2m/s t=-67.9C h=6.7% 405.10MHz Type=RS41-SG batt=2.5V Details on http://radiosondy.info
GB3EI-15U24200672022-12-06 00:33:3154.6696-2.003381445925769Clb=6.5m/s t=-67.7C h=1.5% p=-1.0hPa 405.101 MHz Type=RS41-SG ser=U2420067 Radiosonde
GURGE2-15U24200672022-12-06 00:33:2454.6705-2.004681377025726Clb=7.6m/s t=-67.6C h=1.6% p=-1.0hPa 405.101 MHz Type=RS41-SG ser=U2420067 Radiosonde
G4VFL-14U24200672022-12-06 00:33:2154.671-2.005521366925702Clb=6.5m/s t=-67.5C h=6.7% 405.10MHz Type=RS41-SG Details on http://radiosondy.info
GB3EI-15U24200672022-12-06 00:32:2554.7331-2.059321664322569Clb=6.2m/s t=-64.5C h=1.3% p=-1.0hPa 405.101 MHz Type=RS41-SG ser=U2420067 Radiosonde
GURGE2-15U24200672022-12-06 00:32:1354.7337-2.059631623722531Clb=7.0m/s t=-64.2C h=1.3% p=-1.0hPa 405.101 MHz Type=RS41-SG ser=U2420067 Radiosonde
G4VFL-14U24200672022-12-06 00:31:4754.7349-2.060361603522462Clb=6.9m/s t=-63.8C h=5.5% 405.10MHz Type=RS41-SG Details on http://radiosondy.info
GB3EI-15U24200672022-12-06 00:31:2654.7359-2.061041623322390Clb=6.6m/s t=-64.0C h=1.3% p=-1.0hPa 405.101 MHz Type=RS41-SG ser=U2420067 Radiosonde
G4VFL-14U24200672022-12-06 00:31:2054.7361-2.061211603722374Clb=6.0m/s t=-63.8C h=5.6% 405.10MHz Type=RS41-SG batt=2.5V Details on http://radiosondy.info
GURGE2-15U24200672022-12-06 00:31:1354.7365-2.061461573122345Clb=6.5m/s t=-63.7C h=1.3% p=-1.0hPa 405.101 MHz Type=RS41-SG ser=U2420067 Radiosonde
G4VFL-14U24200672022-12-06 00:30:5054.7373-2.062271483922286Clb=4.3m/s t=-63.2C h=5.3% 405.10MHz Type=RS41-SG Details on http://radiosondy.info
F5RZC-14U24200672022-12-06 00:30:3054.7383-2.06331383922215Clb=5.5m/s t=-63.3C h=5.2% 405.10MHz Type=RS41-SG batt=2.5V Details on http://radiosondy.info
GB3EI-15U24200672022-12-06 00:30:2854.7385-2.063641524322196Clb=5.2m/s t=-63.4C h=1.2% p=-1.0hPa 405.101 MHz Type=RS41-SG ser=U2420067 Radiosonde
G4VFL-14U24200672022-12-06 00:30:2154.7386-2.063721563722190Clb=7.1m/s t=-63.3C h=5.2% 405.10MHz Type=RS41-SG Details on http://radiosondy.info
GURGE2-15U24200672022-12-06 00:30:1554.739-2.06391673922165Clb=6.1m/s t=-63.4C h=1.2% p=-1.0hPa 405.101 MHz Type=RS41-SG ser=U2420067 Radiosonde
F5RZC-14U24200672022-12-06 00:30:0054.7396-2.06431543922125Clb=5.8m/s t=-63.4C h=5.4% 405.10MHz Type=RS41-SG Details on http://radiosondy.info
G4VFL-14U24200672022-12-06 00:29:5254.7399-2.064591523922100Clb=7.6m/s t=-63.3C h=5.4% 405.10MHz Type=RS41-SG batt=2.6V Details on http://radiosondy.info
F5RZC-14U24200672022-12-06 00:29:3454.7409-2.06541513922031Clb=4.3m/s t=-63.0C h=5.3% 405.10MHz Type=RS41-SG Details on http://radiosondy.info
GB3EI-15U24200672022-12-06 00:29:3054.7412-2.065611644322012Clb=5.5m/s t=-63.0C h=1.2% p=-1.0hPa 405.101 MHz Type=RS41-SG ser=U2420067 Radiosonde
G4VFL-14U24200672022-12-06 00:29:2454.7414-2.065721584322000Clb=7.1m/s t=-62.9C h=5.3% 405.10MHz Type=RS41-SG Details on http://radiosondy.info
GURGE2-15U24200672022-12-06 00:29:1854.7417-2.066031473321976Clb=5.4m/s t=-62.8C h=1.2% p=-1.0hPa 405.101 MHz Type=RS41-SG ser=U2420067 Radiosonde
F5RZC-14U24200672022-12-06 00:29:0454.7421-2.066641522621938Clb=4.8m/s t=-62.8C h=5.3% 405.10MHz Type=RS41-SG TxPastBurst=8h30m batt=2.5V Details on http://radiosondy.info
G4VFL-14U24200672022-12-06 00:28:4854.7429-2.067651343321883Clb=5.9m/s t=-62.4C h=5.1% 405.10MHz Type=RS41-SG Details on http://radiosondy.info
GB3EI-15U24200672022-12-06 00:28:3254.7435-2.068631383721827Clb=5.4m/s t=-62.2C h=1.2% p=-1.0hPa 405.101 MHz Type=RS41-SG ser=U2420067 Radiosonde
GURGE2-15U24200672022-12-06 00:28:2054.744-2.069381423121783Clb=6.2m/s t=-62.0C h=1.2% p=-1.0hPa 405.101 MHz Type=RS41-SG ser=U2420067 Radiosonde
GB3EI-15U24200672022-12-06 00:27:3454.7451-2.071661252821631Clb=5.5m/s t=-61.4C h=1.1% p=-1.0hPa 405.101 MHz Type=RS41-SG ser=U2420067 Radiosonde
GURGE2-15U24200672022-12-06 00:27:2154.7454-2.072151551521586Clb=6.9m/s t=-61.7C h=1.1% p=-1.0hPa 405.101 MHz Type=RS41-SG ser=U2420067 Radiosonde
GB3EI-15U24200672022-12-06 00:26:3254.7466-2.072792082621429Clb=5.7m/s t=-62.3C h=1.2% p=-1.0hPa 405.101 MHz Type=RS41-SG ser=U2420067 Radiosonde
G4VFL-14U24200672022-12-06 00:26:2454.7468-2.072631912221403Clb=7.5m/s t=-62.2C h=5.1% 405.10MHz Type=RS41-SG TxPastBurst=8h30m batt=2.6V Details on http://radiosondy.info
GURGE2-15U24200672022-12-06 00:26:2154.7469-2.072661581921384Clb=7.1m/s t=-62.1C h=1.2% p=-1.0hPa 405.101 MHz Type=RS41-SG ser=U2420067 Radiosonde
G4VFL-14U24200672022-12-06 00:25:5454.7476-2.072681792621313Clb=6.2m/s t=-61.6C h=4.8% 405.10MHz Type=RS41-SG Details on http://radiosondy.info
GB3EI-15U24200672022-12-06 00:25:3354.7484-2.072861612421233Clb=7.1m/s t=-61.7C h=1.1% p=-1.0hPa 405.101 MHz Type=RS41-SG ser=U2420067 Radiosonde
G4VFL-14U24200672022-12-06 00:25:2654.7485-2.072951512021222Clb=3.9m/s t=-61.8C h=5.0% 405.10MHz Type=RS41-SG Details on http://radiosondy.info
GURGE2-15U24200672022-12-06 00:25:2054.7487-2.07311712021199Clb=6.9m/s t=-61.9C h=1.2% p=-1.0hPa 405.101 MHz Type=RS41-SG ser=U2420067 Radiosonde
G4VFL-14U24200672022-12-06 00:24:5754.7491-2.073051401321135Clb=4.9m/s t=-61.9C h=5.0% 405.10MHz Type=RS41-SG batt=2.6V Details on http://radiosondy.info
F5RZC-14U24200672022-12-06 00:24:4754.7493-2.073181881521107Clb=5.1m/s t=-61.8C h=4.9% 405.10MHz Type=RS41-SG Details on http://radiosondy.info
GB3EI-15U24200672022-12-06 00:24:3354.7495-2.073351511921064Clb=6.1m/s t=-61.8C h=1.1% p=-1.0hPa 405.101 MHz Type=RS41-SG ser=U2420067 Radiosonde
G4VFL-14U24200672022-12-06 00:24:2854.7496-2.073381851921052Clb=6.2m/s t=-61.8C h=4.9% 405.10MHz Type=RS41-SG Details on http://radiosondy.info
GURGE2-15U24200672022-12-06 00:24:1954.7498-2.073152122221024Clb=4.0m/s t=-61.9C h=1.2% p=-1.0hPa 405.101 MHz Type=RS41-SG ser=U2420067 Radiosonde
F5RZC-14U24200672022-12-06 00:24:1854.7498-2.073152132021024Clb=3.9m/s t=-61.8C h=5.0% 405.10MHz Type=RS41-SG Details on http://radiosondy.info
G4VFL-14U24200672022-12-06 00:23:5954.7502-2.072982102420970Clb=4.8m/s t=-62.0C h=5.1% 405.10MHz Type=RS41-SG Details on http://radiosondy.info
F5RZC-14U24200672022-12-06 00:23:5054.7505-2.072642232420942Clb=6.0m/s t=-61.7C h=5.0% 405.10MHz Type=RS41-SG batt=2.6V Details on http://radiosondy.info
G4VFL-14U24200672022-12-06 00:23:3254.751-2.072361852220884Clb=6.1m/s t=-61.6C h=5.0% 405.10MHz Type=RS41-SG batt=2.6V Details on http://radiosondy.info
F5RZC-14U24200672022-12-06 00:23:2154.7513-2.072162242220854Clb=6.2m/s t=-61.4C h=4.9% 405.10MHz Type=RS41-SG Details on http://radiosondy.info
G4VFL-14U24200672022-12-06 00:23:0254.7518-2.071862001520794Clb=6.6m/s t=-61.2C h=4.9% 405.10MHz Type=RS41-SG Details on http://radiosondy.info
GB3EI-15U24200672022-12-06 00:22:3654.7523-2.0716219720709Clb=4.6m/s t=-61.0C h=1.1% p=-1.0hPa 405.101 MHz Type=RS41-SG ser=U2420067 Radiosonde
GURGE2-15U24200672022-12-06 00:22:2054.7525-2.071531571920670Clb=4.8m/s t=-60.8C h=1.2% p=-1.0hPa 405.101 MHz Type=RS41-SG ser=U2420067 Radiosonde
GB3EI-15U24200672022-12-06 00:21:3854.7535-2.072021622020532Clb=5.1m/s t=-60.9C h=1.1% p=-1.0hPa 405.101 MHz Type=RS41-SG ser=U2420067 Radiosonde
GURGE2-15U24200672022-12-06 00:21:2454.7538-2.072321401720493Clb=4.1m/s t=-61.1C h=1.1% p=-1.0hPa 405.101 MHz Type=RS41-SG ser=U2420067 Radiosonde
GB3EI-15U24200672022-12-06 00:20:4154.7547-2.072672201120353Clb=6.1m/s t=-61.7C h=1.2% p=-1.0hPa 405.101 MHz Type=RS41-SG ser=U2420067 Radiosonde
G4VFL-14U24200672022-12-06 00:20:3554.7547-2.072642161920348Clb=5.4m/s t=-61.7C h=5.1% 405.10MHz Type=RS41-SG Details on http://radiosondy.info
GURGE2-15U24200672022-12-06 00:20:2554.7549-2.072471972020321Clb=5.6m/s t=-61.6C h=1.2% p=-1.0hPa 405.101 MHz Type=RS41-SG ser=U2420067 Radiosonde
G4VFL-14U24200672022-12-06 00:19:5954.7555-2.072211861920246Clb=3.6m/s t=-61.1C h=4.9% 405.10MHz Type=RS41-SG TxPastBurst=8h30m batt=2.6V Details on http://radiosondy.info
GB3EI-15U24200672022-12-06 00:19:3954.756-2.072151672220183Clb=6.3m/s t=-60.8C h=1.1% p=-1.0hPa 405.101 MHz Type=RS41-SG ser=U2420067 Radiosonde
G4VFL-14U24200672022-12-06 00:19:2954.7562-2.072251672220154Clb=5.4m/s t=-60.7C h=4.8% 405.10MHz Type=RS41-SG Details on http://radiosondy.info
GURGE2-15U24200672022-12-06 00:19:2654.7563-2.072311581720143Clb=4.8m/s t=-60.6C h=1.1% p=-1.0hPa 405.101 MHz Type=RS41-SG ser=U2420067 Radiosonde
F5RZC-14U24200672022-12-06 00:19:1054.7569-2.072481732420091Clb=4.4m/s t=-60.8C h=4.7% 405.10MHz Type=RS41-SG Details on http://radiosondy.info
G4VFL-14U24200672022-12-06 00:19:0054.7571-2.072561852820064Clb=6.2m/s t=-60.9C h=4.8% 405.10MHz Type=RS41-SG Details on http://radiosondy.info
F5RZC-14U24200672022-12-06 00:18:4254.7578-2.072441943520008Clb=4.9m/s t=-61.0C h=4.8% 405.10MHz Type=RS41-SG batt=2.6V Details on http://radiosondy.info
G4VFL-14U24200672022-12-06 00:18:3254.7582-2.072241933719974Clb=6.3m/s t=-60.9C h=4.8% 405.10MHz Type=RS41-SG batt=2.6V Details on http://radiosondy.info
GURGE2-15U24200672022-12-06 00:18:3154.7583-2.072211913719967Clb=5.5m/s t=-61.0C h=1.2% p=-1.0hPa 405.101 MHz Type=RS41-SG ser=U2420067 Radiosonde
F5RZC-14U24200672022-12-06 00:18:1654.7591-2.072012003919921Clb=5.1m/s t=-61.0C h=4.8% 405.10MHz Type=RS41-SG Details on http://radiosondy.info
G4VFL-14U24200672022-12-06 00:17:5854.7598-2.071471964119871Clb=4.1m/s t=-61.0C h=4.8% 405.10MHz Type=RS41-SG Details on http://radiosondy.info
F5RZC-14U24200672022-12-06 00:17:4754.7604-2.071251973519839Clb=5.6m/s t=-61.0C h=4.8% 405.10MHz Type=RS41-SG Details on http://radiosondy.info
GB3EI-15U24200672022-12-06 00:17:4654.7605-2.07121973919834Clb=5.4m/s t=-61.0C h=1.2% p=-1.0hPa 405.101 MHz Type=RS41-SG ser=U2420067 Radiosonde
GURGE2-15U24200672022-12-06 00:17:3454.7613-2.070831904119790Clb=4.8m/s t=-61.2C h=1.2% p=-1.0hPa 405.101 MHz Type=RS41-SG ser=U2420067 Radiosonde
G4VFL-14U24200672022-12-06 00:17:2854.7614-2.07081914119785Clb=3.8m/s t=-61.2C h=4.9% 405.10MHz Type=RS41-SG Details on http://radiosondy.info
GB3EI-15U24200672022-12-06 00:16:4654.7634-2.069641974419667Clb=5.2m/s t=-61.0C h=1.2% p=-1.0hPa 405.101 MHz Type=RS41-SG ser=U2420067 Radiosonde
GURGE2-15U24200672022-12-06 00:16:3354.7641-2.069291954119630Clb=4.3m/s t=-60.8C h=1.2% p=-1.0hPa 405.101 MHz Type=RS41-SG ser=U2420067 Radiosonde
M7TDM-1U24200672022-12-06 00:16:0054.7663-2.068651825219521Clb=5.0m/s t=-60.6C h=1.2% p=-1.0hPa 405.100 MHz Type=RS41-SG Radiosonde auto_rx v1.5.6
GB3EI-15U24200672022-12-06 00:15:5554.7669-2.068531894819493Clb=6.9m/s t=-60.4C h=1.2% p=-1.0hPa 405.101 MHz Type=RS41-SG ser=U2420067 Radiosonde
GURGE2-15U24200672022-12-06 00:15:4854.7677-2.068341865219459Clb=5.3m/s t=-60.2C h=1.2% p=-1.0hPa 405.101 MHz Type=RS41-SG ser=U2420067 Radiosonde
M7TDM-1U24200672022-12-06 00:15:3454.7698-2.067621923719356Clb=4.7m/s t=-60.6C h=1.3% p=-1.0hPa 405.100 MHz Type=RS41-SG Radiosonde auto_rx v1.5.6
GB3EI-15U24200672022-12-06 00:15:2854.7703-2.06741864119328Clb=5.2m/s t=-60.5C h=1.3% p=-1.0hPa 405.101 MHz Type=RS41-SG ser=U2420067 Radiosonde
G4VFL-14U24200672022-12-06 00:15:2754.7704-2.067381874419323Clb=4.7m/s t=-60.4C h=4.7% 405.10MHz Type=RS41-SG batt=2.6V Details on http://radiosondy.info
GURGE2-15U24200672022-12-06 00:15:2254.7711-2.067251844419289Clb=5.7m/s t=-60.7C h=1.2% p=-1.0hPa 405.101 MHz Type=RS41-SG ser=U2420067 Radiosonde
G4VFL-14U24200672022-12-06 00:15:0854.7722-2.067221743719234Clb=3.8m/s t=-61.0C h=4.9% 405.10MHz Type=RS41-SG Details on http://radiosondy.info
M7TDM-1U24200672022-12-06 00:15:0054.7729-2.067241833919188Clb=5.5m/s t=-61.1C h=1.2% p=-1.0hPa 405.100 MHz Type=RS41-SG Radiosonde auto_rx v1.5.6
GB3EI-15U24200672022-12-06 00:14:5354.7735-2.067091882819154Clb=5.8m/s t=-61.1C h=1.3% p=-1.0hPa 405.101 MHz Type=RS41-SG ser=U2420067 Radiosonde
G4VFL-14U24200672022-12-06 00:14:4954.7737-2.066992012819133Clb=5.2m/s t=-61.1C h=4.9% 405.10MHz Type=RS41-SG Details on http://radiosondy.info
GURGE2-15U24200672022-12-06 00:14:4654.774-2.066911843519116Clb=3.6m/s t=-61.2C h=1.3% p=-1.0hPa 405.101 MHz Type=RS41-SG ser=U2420067 Radiosonde
F5RZC-14U24200672022-12-06 00:14:4454.7742-2.066851892819101Clb=5.1m/s t=-61.3C h=5.0% 405.10MHz Type=RS41-SG TxPastBurst=8h30m batt=2.7V Details on http://radiosondy.info
G4VFL-14U24200672022-12-06 00:14:4354.7748-2.066312132819046Clb=4.5m/s t=-61.4C h=5.1% 405.10MHz Type=RS41-SG TxPastBurst=8h30m batt=2.7V Details on http://radiosondy.info
M7TDM-1U24200672022-12-06 00:14:4254.7751-2.06612082819022Clb=5.6m/s t=-61.3C h=1.3% p=-1.0hPa 405.100 MHz Type=RS41-SG Radiosonde auto_rx v1.5.6
F5RZC-14U24200672022-12-06 00:14:4154.7751-2.066042113319017Clb=4.8m/s calibration 94% Type=RS41-SG Details on http://radiosondy.info
GB3EI-15U24200672022-12-06 00:14:3954.7755-2.06562163018984Clb=6.4m/s t=-61.0C h=1.3% p=-1.0hPa 405.101 MHz Type=RS41-SG ser=U2420067 Radiosonde
G4VFL-14U24200672022-12-06 00:14:3854.7758-2.065242043518957Clb=5.2m/s t=-60.8C h=4.9% 405.10MHz Type=RS41-SG Details on http://radiosondy.info
GURGE2-15U24200672022-12-06 00:14:3754.776-2.065122033118946Clb=4.2m/s t=-60.8C h=1.3% p=-1.0hPa 405.101 MHz Type=RS41-SG ser=U2420067 Radiosonde
F5RZC-14U24200672022-12-06 00:14:3654.7762-2.0652103518935Clb=5.8m/s calibration 92% Type=RS41-SG Details on http://radiosondy.info
G4VFL-14U24200672022-12-06 00:14:2554.7771-2.064162054118867Clb=4.3m/s t=-60.6C h=4.8% 405.10MHz Type=RS41-SG Details on http://radiosondy.info
M7TDM-1U24200672022-12-06 00:14:2254.7772-2.064041993318855Clb=4.7m/s t=-60.7C h=1.2% p=-1.0hPa 405.100 MHz Type=RS41-SG Radiosonde auto_rx v1.5.6
F5RZC-14U24200672022-12-06 00:14:2054.7773-2.063991984118850Clb=5.8m/s calibration 78% Type=RS41-SG batt=2.7V Details on http://radiosondy.info
GB3EI-15U24200672022-12-06 00:14:1454.7781-2.063592004318804Clb=4.3m/s t=-60.9C h=1.3% p=-1.0hPa 405.101 MHz Type=RS41-SG ser=U2420067 Radiosonde
G4VFL-14U24200672022-12-06 00:14:0854.7786-2.063311984118776Clb=4.6m/s t=-60.7C h=4.8% 405.10MHz Type=RS41-SG batt=2.6V Details on http://radiosondy.info
GURGE2-15U24200672022-12-06 00:14:0754.7788-2.063211933918764Clb=5.7m/s t=-60.7C h=1.2% p=-1.0hPa 405.101 MHz Type=RS41-SG ser=U2420067 Radiosonde
M7TDM-1U24200672022-12-06 00:13:5954.78-2.062312043918682Clb=5.3m/s t=-60.2C h=1.2% p=-1.0hPa 405.100 MHz Type=RS41-SG Radiosonde auto_rx v1.5.6
GB3EI-15U24200672022-12-06 00:13:5654.7808-2.061352154818622Clb=7.0m/s t=-60.1C h=1.2% p=-1.0hPa 405.101 MHz Type=RS41-SG ser=U2420067 Radiosonde
GURGE2-15U24200672022-12-06 00:13:5454.7814-2.060552173718581Clb=4.7m/s t=-59.9C h=1.2% p=-1.0hPa 405.101 MHz Type=RS41-SG ser=U2420067 Radiosonde
M7TDM-1U24200672022-12-06 00:13:5054.7824-2.059512032818503Clb=5.6m/s t=-59.6C h=1.2% p=-1.0hPa 405.100 MHz Type=RS41-SG Radiosonde auto_rx v1.5.6
GB3EI-15U24200672022-12-06 00:13:4554.7834-2.058971943518438Clb=5.6m/s t=-59.5C h=1.2% p=-1.0hPa 405.101 MHz Type=RS41-SG ser=U2420067 Radiosonde
GURGE2-15U24200672022-12-06 00:13:4454.7848-2.058391804618351Clb=6.7m/s t=-59.4C h=1.2% p=-1.0hPa 405.101 MHz Type=RS41-SG ser=U2420067 Radiosonde
M7TDM-1U24200672022-12-06 00:13:4354.7854-2.058331854818323Clb=4.4m/s t=-59.2C h=1.1% p=-1.0hPa 405.100 MHz Type=RS41-SG Radiosonde auto_rx v1.5.6
GURGE2-15U24200672022-12-06 00:13:4054.7875-2.058441754118204Clb=5.9m/s t=-59.2C h=1.2% p=-1.0hPa 405.101 MHz Type=RS41-SG ser=U2420067 Radiosonde
G4VFL-14U24200672022-12-06 00:13:3954.7881-2.058481774418164Clb=6.3m/s t=-59.6C h=4.6% 405.10MHz Type=RS41-SG batt=2.7V Details on http://radiosondy.info
G4VFL-14U24200672022-12-06 00:13:3754.7897-2.059141683918073Clb=5.9m/s t=-59.2C h=4.5% 405.10MHz Type=RS41-SG Details on http://radiosondy.info
G4VFL-14U24200672022-12-06 00:13:3654.7911-2.060091713317987Clb=4.5m/s t=-59.2C h=4.6% 405.10MHz Type=RS41-SG Details on http://radiosondy.info
F5RZC-14U24200672022-12-06 00:13:3554.7921-2.06091502617912Clb=6.2m/s calibration 68% Type=RS41-SG Details on http://radiosondy.info
GURGE2-15U24200672022-12-06 00:13:3454.7927-2.061591473017852Clb=6.5m/s t=-58.8C h=1.2% p=-1.0hPa 405.101 MHz Type=RS41-SG ser=U2420067 Radiosonde
G4VFL-14U24200672022-12-06 00:13:2754.7931-2.062011462417820Clb=6.3m/s t=-58.6C h=4.4% 405.10MHz Type=RS41-SG Details on http://radiosondy.info
M7TDM-1U24200672022-12-06 00:13:2454.7932-2.062171482017803Clb=6.6m/s t=-58.7C h=1.2% p=-1.0hPa 405.100 MHz Type=RS41-SG Radiosonde auto_rx v1.5.6
G4VFL-14U24200672022-12-06 00:13:0854.7939-2.062861673917732Clb=6.3m/s t=-58.7C h=4.5% 405.10MHz Type=RS41-SG Details on http://radiosondy.info
GB3EI-15U24200672022-12-06 00:13:0654.7939-2.06291651317721Clb=6.1m/s t=-58.7C h=1.1% p=-1.0hPa 405.101 MHz Type=RS41-SG ser=U2420067 Radiosonde
GURGE2-15U24200672022-12-06 00:13:0154.7943-2.062991692217682Clb=5.9m/s t=-58.6C h=1.2% p=-1.0hPa 405.101 MHz Type=RS41-SG ser=U2420067 Radiosonde
M7TDM-1U24200672022-12-06 00:13:0054.7947-2.062871922217640Clb=5.6m/s t=-58.4C h=1.2% p=-1.0hPa 405.100 MHz Type=RS41-SG Radiosonde auto_rx v1.5.6
GURGE2-15U24200672022-12-06 00:12:5954.7962-2.061952153117517Clb=4.5m/s t=-58.1C h=1.2% p=-1.0hPa 405.101 MHz Type=RS41-SG ser=U2420067 Radiosonde
GB3EI-15U24200672022-12-06 00:12:5854.7982-2.060122074817387Clb=5.7m/s t=-58.2C h=1.2% p=-1.0hPa 405.101 MHz Type=RS41-SG ser=U2420067 Radiosonde
GURGE2-15U24200672022-12-06 00:12:5754.7991-2.059362065217344Clb=6.0m/s t=-57.9C h=1.2% p=-1.0hPa 405.101 MHz Type=RS41-SG ser=U2420067 Radiosonde
G4VFL-14U24200672022-12-06 00:12:5654.8005-2.058142064417281Clb=6.4m/s t=-57.4C h=4.1% 405.10MHz Type=RS41-SG batt=2.7V Details on http://radiosondy.info
G4VFL-14U24200672022-12-06 00:12:5554.802-2.056842064317202Clb=4.3m/s t=-57.7C h=4.3% 405.10MHz Type=RS41-SG Details on http://radiosondy.info
M7TDM-1U24200672022-12-06 00:12:5354.8028-2.056411894317160Clb=5.9m/s t=-57.7C h=1.2% p=-1.0hPa 405.100 MHz Type=RS41-SG Radiosonde auto_rx v1.5.6
G4VFL-14U24200672022-12-06 00:12:4554.8036-2.056151884317122Clb=4.8m/s t=-57.7C h=4.2% 405.10MHz Type=RS41-SG Details on http://radiosondy.info
F5RZC-14U24200672022-12-06 00:12:3054.8046-2.055841914117072Clb=5.9m/s calibration 47% Type=RS41-SG Details on http://radiosondy.info
GB3EI-15U24200672022-12-06 00:12:2754.8049-2.055781874317061Clb=5.0m/s t=-57.9C h=-1.0% p=-1.0hPa 405.101 MHz Type=RS41-SG ser=U2420067 Radiosonde
G4VFL-14U24200672022-12-06 00:12:2154.8052-2.055681914117044Clb=6.3m/s t=-57.8C h=4.3% 405.10MHz Type=RS41-SG batt=2.7V Details on http://radiosondy.info
GURGE2-15U24200672022-12-06 00:12:1454.8055-2.055511963917022Clb=4.2m/s t=-57.7C h=1.3% p=-1.0hPa 405.101 MHz Type=RS41-SG ser=U2420067 Radiosonde
M7TDM-1U24200672022-12-06 00:12:0754.8059-2.055292014117001Clb=3.8m/s t=-57.7C h=1.2% p=-1.0hPa 405.100 MHz Type=RS41-SG Radiosonde auto_rx v1.5.6
F5RZC-14U24200672022-12-06 00:12:0154.8061-2.05521874116991Clb=5.5m/s calibration 29% Type=RS41-SG Details on http://radiosondy.info
G4VFL-14U24200672022-12-06 00:11:5254.8066-2.055151844116966Clb=5.2m/s t=-57.7C h=4.4% 405.10MHz Type=RS41-SG Details on http://radiosondy.info
F5RZC-14U24200672022-12-06 00:11:3554.8076-2.054831973716914Clb=4.3m/s calibration 9% Type=RS41 batt=2.6V Details on http://radiosondy.info
GB3EI-15U24200672022-12-06 00:11:3054.8079-2.054741884116898Clb=4.7m/s t=-57.6C h=-1.0% p=-1.0hPa 405.101 MHz Type=RS41-SG ser=U2420067 Radiosonde
G4VFL-14U24200672022-12-06 00:11:2254.8085-2.05461853716873Clb=3.4m/s t=-57.5C h=4.2% 405.10MHz Type=RS41-SG Details on http://radiosondy.info
GURGE2-15U24200672022-12-06 00:11:1954.8087-2.054561913516864Clb=5.2m/s t=-57.7C h=1.3% p=-1.0hPa 405.101 MHz Type=RS41-SG ser=U2420067 Radiosonde
M7TDM-1U24200672022-12-06 00:11:1354.8089-2.054481863716847Clb=4.8m/s t=-57.8C h=1.3% p=-1.0hPa 405.100 MHz Type=RS41-SG Radiosonde auto_rx v1.5.6
G4VFL-14U24200672022-12-06 00:10:5154.8099-2.054371722416789Clb=4.2m/s t=-57.9C h=4.4% 405.10MHz Type=RS41-SG TxPastBurst=8h30m batt=2.6V Details on http://radiosondy.info
GB3EI-15U24200672022-12-06 00:10:3454.8108-2.054491703716737Clb=5.5m/s t=-273.0C h=-1.0% p=-1.0hPa 405.101 MHz Type=RS41-SG ser=U2420067 Radiosonde
GURGE2-15U24200672022-12-06 00:10:2054.8113-2.054791643016700Clb=4.4m/s t=-58.0C h=1.3% p=-1.0hPa 405.101 MHz Type=RS41-SG ser=U2420067 Radiosonde
M7TDM-1U24200672022-12-06 00:10:1654.8115-2.054851693316689Clb=4.8m/s t=-58.0C h=1.3% p=-1.0hPa 405.100 MHz Type=RS41-SG Radiosonde auto_rx v1.5.6
GURGE2-15U24200672022-12-06 00:09:2154.8133-2.055031761516532Clb=5.6m/s t=-58.1C h=1.3% p=-1.0hPa 405.101 MHz Type=RS41-SG ser=U2420067 Radiosonde
M7TDM-1U24200672022-12-06 00:09:2054.8133-2.055031761516532Clb=5.6m/s t=-58.1C h=1.3% p=-1.0hPa 405.100 MHz Type=RS41-SG Radiosonde auto_rx v1.5.6
M7TDM-1U24200672022-12-06 00:08:2454.8145-2.054881821516382Clb=5.9m/s t=-57.7C h=1.2% p=-1.0hPa 405.100 MHz Type=RS41-SG Radiosonde auto_rx v1.5.6
GURGE2-15U24200672022-12-06 00:08:2354.8145-2.054871891716377Clb=4.5m/s t=-57.7C h=1.3% p=-1.0hPa 405.101 MHz Type=RS41-SG ser=U2420067 Radiosonde
G4VFL-14U24200672022-12-06 00:08:1054.8148-2.054742032016350Clb=5.8m/s t=-57.4C h=4.3% 405.10MHz Type=RS41-SG Details on http://radiosondy.info
G4VFL-14U24200672022-12-06 00:07:4054.8156-2.054281991916265Clb=5.6m/s t=-57.0C h=4.2% 405.10MHz Type=RS41-SG Details on http://radiosondy.info
M7TDM-1U24200672022-12-06 00:07:3054.816-2.054251781716230Clb=4.4m/s t=-56.8C h=1.3% p=-1.0hPa 405.100 MHz Type=RS41-SG Radiosonde auto_rx v1.5.6
GURGE2-15U24200672022-12-06 00:07:2754.8161-2.054251871316221Clb=3.8m/s t=-56.7C h=1.2% p=-1.0hPa 405.101 MHz Type=RS41-SG ser=U2420067 Radiosonde
G4VFL-14U24200672022-12-06 00:07:1254.8164-2.054161821716190Clb=4.5m/s t=-56.5C h=4.1% 405.10MHz Type=RS41-SG batt=2.6V Details on http://radiosondy.info
G4VFL-14U24200672022-12-06 00:06:4554.817-2.054121782016114Clb=4.0m/s t=-56.8C h=4.1% 405.10MHz Type=RS41-SG Details on http://radiosondy.info
M7TDM-1U24200672022-12-06 00:06:3754.8173-2.05411831716090Clb=6.0m/s t=-56.8C h=1.2% p=-1.0hPa 405.100 MHz Type=RS41-SG Radiosonde auto_rx v1.5.6
GURGE2-15U24200672022-12-06 00:06:3254.8176-2.054111741716062Clb=4.9m/s t=-57.2C h=1.3% p=-1.0hPa 405.101 MHz Type=RS41-SG ser=U2420067 Radiosonde
G4VFL-14U24200672022-12-06 00:06:1854.8178-2.054121801516037Clb=3.1m/s t=-57.1C h=4.3% 405.10MHz Type=RS41-SG Details on http://radiosondy.info
G4VFL-14U24200672022-12-06 00:05:4854.8183-2.054321791315962Clb=6.1m/s t=-56.7C h=4.2% 405.10MHz Type=RS41-SG batt=2.6V Details on http://radiosondy.info
M7TDM-1U24200672022-12-06 00:05:4254.8184-2.054391481315942Clb=3.9m/s t=-56.7C h=1.3% p=-1.0hPa 405.100 MHz Type=RS41-SG Radiosonde auto_rx v1.5.6
GURGE2-15U24200672022-12-06 00:05:3454.8186-2.054491551715918Clb=4.0m/s t=-56.6C h=1.2% p=-1.0hPa 405.101 MHz Type=RS41-SG ser=U2420067 Radiosonde
G4VFL-14U24200672022-12-06 00:05:1954.8188-2.054621801515883Clb=4.6m/s t=-56.4C h=4.1% 405.10MHz Type=RS41-SG Details on http://radiosondy.info
M7TDM-1U24200672022-12-06 00:04:5054.8196-2.054811741715791Clb=4.5m/s t=-56.3C h=1.3% p=-1.0hPa 405.100 MHz Type=RS41-SG Radiosonde auto_rx v1.5.6
GURGE2-15U24200672022-12-06 00:04:4054.8198-2.054791811115767Clb=3.3m/s t=-56.3C h=1.2% p=-1.0hPa 405.101 MHz Type=RS41-SG ser=U2420067 Radiosonde
M7TDM-1U24200672022-12-06 00:04:0054.8208-2.053722232415643Clb=4.6m/s t=-57.2C h=1.4% p=-1.0hPa 405.100 MHz Type=RS41-SG Radiosonde auto_rx v1.5.6
GURGE2-15U24200672022-12-06 00:03:5454.8211-2.053342072415614Clb=4.3m/s t=-57.3C h=1.4% p=-1.0hPa 405.101 MHz Type=RS41-SG ser=U2420067 Radiosonde
G4VFL-14U24200672022-12-06 00:03:3654.822-2.052432112815532Clb=4.3m/s t=-56.9C h=4.3% 405.10MHz Type=RS41-SG Details on http://radiosondy.info
M7TDM-1U24200672022-12-06 00:03:3354.8223-2.051972173115497Clb=6.0m/s t=-57.0C h=1.4% p=-1.0hPa 405.100 MHz Type=RS41-SG Radiosonde auto_rx v1.5.6
GURGE2-15U24200672022-12-06 00:03:2654.8228-2.051462332415464Clb=3.8m/s t=-57.3C h=1.4% p=-1.0hPa 405.101 MHz Type=RS41-SG ser=U2420067 Radiosonde
G4VFL-14U24200672022-12-06 00:03:2454.8228-2.051382372415459Clb=5.8m/s t=-57.2C h=4.4% 405.10MHz Type=RS41-SG TxPastBurst=8h30m batt=2.7V Details on http://radiosondy.info
G4VFL-14U24200672022-12-06 00:03:0754.8235-2.050341992215383Clb=6.7m/s t=-57.2C h=4.4% 405.10MHz Type=RS41-SG Details on http://radiosondy.info
M7TDM-1U24200672022-12-06 00:03:0054.8238-2.050072132015347Clb=5.3m/s t=-57.2C h=1.4% p=-1.0hPa 405.100 MHz Type=RS41-SG Radiosonde auto_rx v1.5.6
GURGE2-15U24200672022-12-06 00:02:5154.8242-2.049711992615304Clb=4.0m/s t=-56.9C h=1.4% p=-1.0hPa 405.101 MHz Type=RS41-SG ser=U2420067 Radiosonde
G4VFL-14U24200672022-12-06 00:02:4954.8243-2.049622052815295Clb=4.2m/s t=-56.9C h=4.3% 405.10MHz Type=RS41-SG Details on http://radiosondy.info
G4VFL-14U24200672022-12-06 00:02:3454.8253-2.048842042815211Clb=5.5m/s t=-57.2C h=4.4% 405.10MHz Type=RS41-SG batt=2.6V Details on http://radiosondy.info
M7TDM-1U24200672022-12-06 00:02:3054.8256-2.048681973015189Clb=5.4m/s t=-57.1C h=1.5% p=-1.0hPa 405.100 MHz Type=RS41-SG Radiosonde auto_rx v1.5.6
GURGE2-15U24200672022-12-06 00:02:2154.8261-2.048262042815140Clb=4.5m/s t=-57.0C h=1.4% p=-1.0hPa 405.101 MHz Type=RS41-SG ser=U2420067 Radiosonde
G4VFL-14U24200672022-12-06 00:02:1854.8263-2.048142012415124Clb=4.3m/s t=-56.9C h=4.3% 405.10MHz Type=RS41-SG Details on http://radiosondy.info
G4VFL-14U24200672022-12-06 00:02:0154.827-2.047042363015038Clb=4.3m/s t=-57.0C h=4.4% 405.10MHz Type=RS41-SG Details on http://radiosondy.info
M7TDM-1U24200672022-12-06 00:02:0054.8271-2.046842312615027Clb=4.8m/s t=-56.9C h=1.4% p=-1.0hPa 405.100 MHz Type=RS41-SG Radiosonde auto_rx v1.5.6
GURGE2-15U24200672022-12-06 00:01:4954.8275-2.045712412814976Clb=5.4m/s t=-56.5C h=-1.0% p=-1.0hPa 405.101 MHz Type=RS41-SG ser=U2420067 Radiosonde
G4VFL-14U24200672022-12-06 00:01:4654.8276-2.04542363114961Clb=5.8m/s t=-56.3C h=4.2% 405.10MHz Type=RS41-SG batt=2.7V Details on http://radiosondy.info
M7TDM-1U24200672022-12-06 00:01:3254.8284-2.043722312614872Clb=5.0m/s t=-56.9C h=1.5% p=-1.0hPa 405.100 MHz Type=RS41-SG Radiosonde auto_rx v1.5.6
GURGE2-15U24200672022-12-06 00:01:2054.8291-2.042672092414805Clb=4.7m/s t=-56.5C h=-1.0% p=-1.0hPa 405.101 MHz Type=RS41-SG ser=U2420067 Radiosonde
M7TDM-1U24200672022-12-06 00:01:0054.83-2.04172142414717Clb=4.7m/s t=-55.9C h=1.4% p=-1.0hPa 405.100 MHz Type=RS41-SG Radiosonde auto_rx v1.5.6
GURGE2-15U24200672022-12-06 00:00:5554.8335-2.038872113114457Clb=6.2m/s t=-56.6C h=-1.0% p=-1.0hPa 405.101 MHz Type=RS41-SG ser=U2420067 Radiosonde
G4VFL-14U24200672022-12-06 00:00:5354.8336-2.03882092814452Clb=4.3m/s t=-56.6C h=4.4% 405.10MHz Type=RS41-SG Details on http://radiosondy.info
M7TDM-1U24200672022-12-06 00:00:5254.834-2.038092222814407Clb=5.7m/s t=-56.4C h=1.5% p=-1.0hPa 405.100 MHz Type=RS41-SG Radiosonde auto_rx v1.5.6
G4VFL-14U24200672022-12-06 00:00:5054.8345-2.037322282414354Clb=4.1m/s t=-56.1C h=4.3% 405.10MHz Type=RS41-SG TxPastBurst=8h30m batt=2.7V Details on http://radiosondy.info
GURGE2-15U24200672022-12-06 00:00:4954.8348-2.036882302414330Clb=5.0m/s t=-56.0C h=-1.0% p=-1.0hPa 405.101 MHz Type=RS41 ser=U2420067 Radiosonde
G4VFL-14U24200672022-12-06 00:00:4554.8351-2.035952222214275Clb=6.3m/s t=-56.4C h=4.3% 405.10MHz Type=RS41-SG Details on http://radiosondy.info
M7TDM-1U24200672022-12-06 00:00:4454.8352-2.035772232414260Clb=4.8m/s t=-56.6C h=1.6% p=-1.0hPa 405.100 MHz Type=RS41-SG Radiosonde auto_rx v1.5.6
G4VFL-14U24200672022-12-06 00:00:4254.8358-2.034942102214196Clb=5.7m/s t=-56.2C h=4.3% 405.10MHz Type=RS41-SG Details on http://radiosondy.info
GURGE2-15U24200672022-12-06 00:00:4154.836-2.034792052014181Clb=5.5m/s t=-273.0C h=-1.0% p=-1.0hPa 405.101 MHz Type=RS41 ser=U2420067 Radiosonde
G4VFL-14U24200672022-12-06 00:00:3754.8366-2.034342013014123Clb=4.9m/s t=-56.1C h=4.3% 405.10MHz Type=RS41-SG batt=2.6V Details on http://radiosondy.info
G4VFL-14U24200672022-12-06 00:00:3454.8376-2.033532203314051Clb=4.1m/s t=-55.9C h=4.2% 405.10MHz Type=RS41-SG Details on http://radiosondy.info
M7TDM-1U24200672022-12-06 00:00:3254.8388-2.032252223113972Clb=4.3m/s t=-56.4C h=1.6% p=-1.0hPa 405.100 MHz Type=RS41-SG Radiosonde auto_rx v1.5.6
M7TDM-1U24200672022-12-06 00:00:2954.841-2.029832123913831Clb=3.3m/s t=-56.7C h=1.8% p=-1.0hPa 405.100 MHz Type=RS41-SG Radiosonde auto_rx v1.5.6
GURGE2-15U24200672022-12-06 00:00:0054.8435-2.028321893713698Clb=5.8m/s t=-273.0C h=-1.0% p=-1.0hPa 405.101 MHz Type=RS41 ser=U2420067 Radiosonde
M7TDM-1U24200672022-12-05 23:59:4154.8437-2.02831793313688Clb=5.4m/s t=-56.7C h=1.8% p=-1.0hPa 405.100 MHz Type=RS41-SG Radiosonde auto_rx v1.5.6
G4VFL-14U24200672022-12-05 23:59:3654.8439-2.028321743713679Clb=3.4m/s t=-56.6C h=4.7% 405.10MHz Type=RS41-SG Details on http://radiosondy.info
G4VFL-14U24200672022-12-05 23:59:0554.8456-2.028051943313593Clb=4.7m/s t=-56.4C h=4.6% 405.10MHz Type=RS41-SG batt=2.6V Details on http://radiosondy.info
M7TDM-1U24200672022-12-05 23:58:4954.8464-2.027831903113546Clb=3.6m/s t=-56.2C h=1.8% p=-1.0hPa 405.100 MHz Type=RS41-SG Radiosonde auto_rx v1.5.6
G4VFL-14U24200672022-12-05 23:58:3654.8469-2.027552033013515Clb=3.6m/s t=-55.9C h=4.4% 405.10MHz Type=RS41-SG Details on http://radiosondy.info
G4VFL-14U24200672022-12-05 23:58:0454.8482-2.026791992013423Clb=4.6m/s t=-56.1C h=4.5% 405.10MHz Type=RS41-SG Details on http://radiosondy.info
M7TDM-1U24200672022-12-05 23:57:5654.8486-2.026641902213396Clb=3.8m/s t=-56.3C h=1.8% p=-1.0hPa 405.100 MHz Type=RS41-SG Radiosonde auto_rx v1.5.6
G4VFL-14U24200672022-12-05 23:57:3654.849-2.026192062613336Clb=7.1m/s t=-55.8C h=4.5% 405.10MHz Type=RS41-SG TxPastBurst=8h30m batt=2.7V Details on http://radiosondy.info
G4VFL-14U24200672022-12-05 23:57:0754.8499-2.025342103013254Clb=3.8m/s t=-55.1C h=4.2% 405.10MHz Type=RS41-SG Details on http://radiosondy.info
M7TDM-1U24200672022-12-05 23:57:0254.8501-2.025162122813238Clb=4.5m/s t=-55.0C h=1.6% p=-1.0hPa 405.100 MHz Type=RS41-SG Radiosonde auto_rx v1.5.6
G4VFL-14U24200672022-12-05 23:56:3954.8508-2.024362121913174Clb=5.4m/s t=-55.7C h=4.5% 405.10MHz Type=RS41-SG Details on http://radiosondy.info
M7TDM-1U24200672022-12-05 23:56:0754.8521-2.023322043013076Clb=5.3m/s t=-55.3C h=1.7% p=-1.0hPa 405.100 MHz Type=RS41-SG Radiosonde auto_rx v1.5.6
M7TDM-1U24200672022-12-05 23:56:0054.8536-2.021792131712914Clb=6.2m/s t=-54.7C h=1.7% p=-1.0hPa 405.100 MHz Type=RS41-SG Radiosonde auto_rx v1.5.6
M7TDM-1U24200672022-12-05 23:55:5654.854-2.02092227612746Clb=3.5m/s t=-54.6C h=1.8% p=-1.0hPa 405.100 MHz Type=RS41-SG Radiosonde auto_rx v1.5.6
G4VFL-14U24200672022-12-05 23:55:5154.8541-2.02077312912718Clb=3.9m/s t=-54.8C h=4.5% 405.10MHz Type=RS41-SG batt=2.6V Details on http://radiosondy.info
G4VFL-14U24200672022-12-05 23:55:2354.8539-2.02073981112617Clb=5.3m/s t=-54.2C h=4.3% 405.10MHz Type=RS41-SG Details on http://radiosondy.info
M7TDM-1U24200672022-12-05 23:55:1554.8539-2.02079336712582Clb=10.4m/s t=-54.7C h=1.9% p=-1.0hPa 405.100 MHz Type=RS41-SG Radiosonde auto_rx v1.5.6
G4VFL-14U24200672022-12-05 23:54:5754.854-2.020382361912527Clb=3.4m/s t=-54.7C h=4.5% 405.10MHz Type=RS41-SG Details on http://radiosondy.info
G4VFL-14U24200672022-12-05 23:54:3454.8546-2.019712172212456Clb=3.3m/s t=-55.9C h=5.0% 405.10MHz Type=RS41-SG batt=2.7V Details on http://radiosondy.info
M7TDM-1U24200672022-12-05 23:54:2854.8548-2.019462242612439Clb=4.4m/s t=-56.3C h=2.4% p=-1.0hPa 405.100 MHz Type=RS41-SG Radiosonde auto_rx v1.5.6
G4VFL-14U24200672022-12-05 23:54:0754.8553-2.018552362412386Clb=3.8m/s t=-56.7C h=5.3% 405.10MHz Type=RS41-SG Details on http://radiosondy.info
G4VFL-14U24200672022-12-05 23:53:4354.8559-2.017322232812318Clb=4.5m/s t=-56.9C h=5.4% 405.10MHz Type=RS41-SG Details on http://radiosondy.info
M7TDM-1U24200672022-12-05 23:53:3954.856-2.017092232612304Clb=5.4m/s t=-57.1C h=2.7% p=-1.0hPa 405.100 MHz Type=RS41-SG Radiosonde auto_rx v1.5.6
G4VFL-14U24200672022-12-05 23:53:1854.8567-2.016252153012249Clb=4.3m/s t=-57.3C h=5.6% 405.10MHz Type=RS41-SG TxPastBurst=8h30m batt=2.6V Details on http://radiosondy.info
M7TDM-1U24200672022-12-05 23:52:5054.8576-2.015082112812169Clb=3.3m/s t=-57.5C h=2.9% p=-1.0hPa 405.100 MHz Type=RS41-SG Radiosonde auto_rx v1.5.6
M7TDM-1U24200672022-12-05 23:52:0054.8596-2.012942092612028Clb=3.9m/s t=-57.0C h=3.0% p=-1.0hPa 405.100 MHz Type=RS41-SG Radiosonde auto_rx v1.5.6
GURGE2-15U24200672022-12-05 23:51:5954.8596-2.012942092612028Clb=3.9m/s t=-57.0C h=3.0% p=-1.0hPa 405.101 MHz Type=RS41-SG ser=U2420067 Radiosonde
M7TDM-1U24200672022-12-05 23:51:3054.8619-2.011441933511884Clb=5.2m/s t=-57.1C h=3.3% p=-1.0hPa 405.100 MHz Type=RS41-SG Radiosonde auto_rx v1.5.6
G4VFL-14U24200672022-12-05 23:51:2454.8624-2.011291913011861Clb=4.5m/s t=-57.0C h=6.2% calibration 98% 405.10MHz Type=RS41-SG Details on http://radiosondy.info
G4VFL-14U24200672022-12-05 23:51:1754.8635-2.011071862811781Clb=4.1m/s t=-57.2C calibration 98% 405.10MHz Type=RS41-SG Details on http://radiosondy.info
M7TDM-1U24200672022-12-05 23:51:1654.8641-2.011031922411737Clb=5.9m/s t=-57.1C h=3.8% p=-1.0hPa 405.100 MHz Type=RS41-SG Radiosonde auto_rx v1.5.6
G4VFL-14U24200672022-12-05 23:51:1554.8654-2.010412041911631Clb=5.1m/s t=-56.4C calibration 96% 405.10MHz Type=RS41-SG Details on http://radiosondy.info
M7TDM-1U24200672022-12-05 23:51:1454.8656-2.01022221711596Clb=6.2m/s t=-56.4C h=4.5% p=-1.0hPa 405.100 MHz Type=RS41-SG Radiosonde auto_rx v1.5.6
G4VFL-14U24200672022-12-05 23:51:1054.8669-2.008592212411469Clb=4.0m/s t=-57.5C calibration 94% 405.10MHz Type=RS41-SG batt=2.7V Details on http://radiosondy.info
M7TDM-1U24200672022-12-05 23:51:0554.8671-2.008232421911446Clb=3.6m/s t=-57.5C h=7.4% p=-1.0hPa 405.100 MHz Type=RS41-SG Radiosonde auto_rx v1.5.6
GURGE2-15U24200672022-12-05 23:51:0054.8672-2.007732452411419Clb=6.0m/s t=-57.8C h=-1.0% p=-1.0hPa 405.101 MHz Type=RS41-SG ser=U2420067 Radiosonde
G4VFL-14U24200672022-12-05 23:50:5154.8673-2.007252394311393Clb=4.0m/s t=-58.2C calibration 94% 405.10MHz Type=RS41-SG Details on http://radiosondy.info
M7TDM-1U24200672022-12-05 23:50:2154.8681-2.005022474111305Clb=5.2m/s t=-58.5C h=14.5% p=-1.0hPa 405.100 MHz Type=RS41-SG Radiosonde auto_rx v1.5.6
GURGE2-15U24200672022-12-05 23:50:1254.8684-2.00412424111273Clb=4.4m/s t=-58.5C h=-1.0% p=-1.0hPa 405.101 MHz Type=RS41-SG ser=U2420067 Radiosonde
M7TDM-1U24200672022-12-05 23:49:3454.8698-1.999772405011158Clb=2.9m/s t=-58.4C h=17.5% p=-1.0hPa 405.100 MHz Type=RS41-SG Radiosonde auto_rx v1.5.6
M7TDM-1U24200672022-12-05 23:48:4654.8722-1.993862275411009Clb=3.3m/s t=-59.0C h=17.7% p=-1.0hPa 405.100 MHz Type=RS41-SG Radiosonde auto_rx v1.5.6
G4VFL-14U24200672022-12-05 23:48:3754.8727-1.993052315410989Clb=3.9m/s t=-58.8C calibration 94% 405.10MHz Type=RS41-SG Details on http://radiosondy.info
GURGE2-15U24200672022-12-05 23:48:3354.8731-1.992122355410963Clb=3.7m/s t=-58.9C h=-1.0% p=-1.0hPa 405.101 MHz Type=RS41-SG ser=U2420067 Radiosonde
G4VFL-14U24200672022-12-05 23:48:1154.8739-1.990112375410913Clb=3.5m/s t=-58.7C calibration 94% 405.10MHz Type=RS41-SG batt=2.7V Details on http://radiosondy.info
M7TDM-1U24200672022-12-05 23:48:0054.8748-1.988412275610870Clb=3.7m/s t=-58.5C h=14.0% p=-1.0hPa 405.100 MHz Type=RS41-SG Radiosonde auto_rx v1.5.6
G4VFL-14U24200672022-12-05 23:47:5254.8754-1.987242295610838Clb=4.8m/s t=-58.4C calibration 94% 405.10MHz Type=RS41-SG Details on http://radiosondy.info
GURGE2-15U24200672022-12-05 23:47:5154.8757-1.986692255710824Clb=4.6m/s t=-273.0C h=-1.0% p=-1.0hPa 405.101 MHz Type=RS41-SG ser=U2420067 Radiosonde
G4VFL-14U24200672022-12-05 23:47:3754.8769-1.984742215710767Clb=3.5m/s t=-58.4C calibration 84% 405.10MHz Type=RS41-SG Details on http://radiosondy.info
M7TDM-1U24200672022-12-05 23:47:3054.8778-1.983422245910728Clb=5.4m/s t=-58.2C h=12.3% p=-1.0hPa 405.100 MHz Type=RS41-SG Radiosonde auto_rx v1.5.6
G4VFL-14U24200672022-12-05 23:47:1954.8789-1.981852165410668Clb=3.8m/s calibration 76% Type=RS41-SG batt=2.7V Details on http://radiosondy.info
G4VFL-14U24200672022-12-05 23:47:0354.8805-1.97962214610588Clb=3.6m/s calibration 66% Type=RS41-SG Details on http://radiosondy.info
M7TDM-1U24200672022-12-05 23:47:0054.8809-1.979092184610569Clb=5.4m/s t=-57.8C h=13.6% p=-1.0hPa 405.100 MHz Type=RS41-SG Radiosonde auto_rx v1.5.6
G4VFL-14U24200672022-12-05 23:46:5054.882-1.977382304810507Clb=5.0m/s calibration 64% Type=RS41-SG Details on http://radiosondy.info
M7TDM-1U24200672022-12-05 23:46:4954.8833-1.974882325210420Clb=4.4m/s t=-57.5C h=17.6% p=-1.0hPa 405.100 MHz Type=RS41-SG Radiosonde auto_rx v1.5.6
M7TDM-1U24200672022-12-05 23:46:4854.8857-1.969782325010273Clb=6.9m/s t=-56.7C h=23.5% p=-1.0hPa 405.100 MHz Type=RS41-SG Radiosonde auto_rx v1.5.6
M7TDM-1U24200672022-12-05 23:46:1654.8885-1.964642275910129Clb=4.8m/s t=-55.8C h=25.6% p=-1.0hPa 405.100 MHz Type=RS41-SG Radiosonde auto_rx v1.5.6
G4VFL-14U24200672022-12-05 23:46:0854.889-1.963792235610101Clb=5.8m/s calibration 50% Type=RS41-SG batt=2.7V Details on http://radiosondy.info
G4VFL-14U24200672022-12-05 23:45:4354.8906-1.961092295910022Clb=5.2m/s calibration 35% Type=RS41-SG Details on http://radiosondy.info
M7TDM-1U24200672022-12-05 23:45:3054.8916-1.95957225599978Clb=4.0m/s t=-55.2C h=22.6% p=-1.0hPa 405.100 MHz Type=RS41-SG Radiosonde auto_rx v1.5.6
G4VFL-14U24200672022-12-05 23:45:1954.8922-1.95858218579952Clb=4.3m/s calibration 21% Type=RS41-SG Details on http://radiosondy.info
G4VFL-14U24200672022-12-05 23:44:5454.894-1.95594221599876Clb=5.3m/s calibration 9% Type=RS41-SG batt=2.7V Details on http://radiosondy.info
M7TDM-1U24200672022-12-05 23:44:4254.8948-1.95446224639843Clb=5.2m/s t=-54.7C h=21.3% p=-1.0hPa 405.100 MHz Type=RS41-SG Radiosonde auto_rx v1.5.6
M7TDM-1U24200672022-12-05 23:44:0054.8981-1.94917232509683Clb=6.2m/s t=-53.6C h=13.5% p=-1.0hPa 405.100 MHz Type=RS41-SG Radiosonde auto_rx v1.5.6
M7TDM-1U24200672022-12-05 23:43:3054.9008-1.94493222439521Clb=5.3m/s t=-53.1C h=18.9% p=-1.0hPa 405.100 MHz Type=RS41-SG Radiosonde auto_rx v1.5.6
M7TDM-1U24200672022-12-05 23:43:0054.9037-1.942209439378Clb=6.8m/s t=-52.8C h=34.0% p=-1.0hPa 405.100 MHz Type=RS41-SG Radiosonde auto_rx v1.5.6
M7TDM-1U24200672022-12-05 23:42:3054.9062-1.94039187359219Clb=4.8m/s t=-51.5C h=37.2% p=-1.0hPa 405.100 MHz Type=RS41-SG Radiosonde auto_rx v1.5.6
M7TDM-1U24200672022-12-05 23:42:2754.9089-1.9391190339051Clb=2.8m/s t=-50.5C h=37.1% p=-1.0hPa 405.100 MHz Type=RS41-SG Radiosonde auto_rx v1.5.6
GURGE2-15U24200672022-12-05 23:42:2054.9108-1.9382197418941Clb=4.5m/s t=-273.0C h=-1.0% p=-1.0hPa 405.101 MHz Type=RS41-SG ser=U2420067 Radiosonde
M7TDM-1U24200672022-12-05 23:42:1154.9114-1.9377207248904Clb=4.4m/s t=-49.7C h=34.9% p=-1.0hPa 405.100 MHz Type=RS41-SG Radiosonde auto_rx v1.5.6
GURGE2-15U24200672022-12-05 23:41:3754.9129-1.93624203398763Clb=5.2m/s t=-273.0C h=-1.0% p=-1.0hPa 405.101 MHz Type=RS41-SG ser=U2420067 Radiosonde
M7TDM-1U24200672022-12-05 23:41:2554.9134-1.93572224288727Clb=5.8m/s t=-48.2C h=32.9% p=-1.0hPa 405.100 MHz Type=RS41-SG Radiosonde auto_rx v1.5.6
GURGE2-15U24200672022-12-05 23:40:5154.9157-1.93366214288571Clb=4.8m/s t=-273.0C h=-1.0% p=-1.0hPa 405.101 MHz Type=RS41 ser=U2420067 Radiosonde
M7TDM-1U24200672022-12-05 23:40:4154.9157-1.93366214288571Clb=4.8m/s t=-47.0C h=30.3% p=-1.0hPa 405.100 MHz Type=RS41-SG Radiosonde auto_rx v1.5.6
M7TDM-1U24200672022-12-05 23:40:0054.918-1.93221203398398Clb=5.6m/s t=-45.5C h=22.1% p=-1.0hPa 405.100 MHz Type=RS41-SG Radiosonde auto_rx v1.5.6
M7TDM-1U24200672022-12-05 23:39:3054.9203-1.93072183178223Clb=5.3m/s t=-44.4C h=25.0% p=-1.0hPa 405.100 MHz Type=RS41-SG Radiosonde auto_rx v1.5.6
M7TDM-1U24200672022-12-05 23:39:0054.9222-1.93009203268055Clb=4.5m/s t=-43.2C h=28.3% p=-1.0hPa 405.100 MHz Type=RS41-SG Radiosonde auto_rx v1.5.6
M7TDM-1U24200672022-12-05 23:38:3054.9244-1.92934183287883Clb=4.0m/s t=-41.9C h=27.0% p=-1.0hPa 405.100 MHz Type=RS41-SG Radiosonde auto_rx v1.5.6
M7TDM-1U24200672022-12-05 23:38:0054.9265-1.92845194287736Clb=7.0m/s t=-40.8C h=26.3% p=-1.0hPa 405.100 MHz Type=RS41-SG Radiosonde auto_rx v1.5.6
M7TDM-1U24200672022-12-05 23:37:5854.9287-1.92705202317564Clb=3.9m/s t=-39.3C h=17.4% p=-1.0hPa 405.100 MHz Type=RS41-SG Radiosonde auto_rx v1.5.6
M7TDM-1U24200672022-12-05 23:37:2854.9305-1.92566185307391Clb=7.0m/s t=-37.8C h=22.9% p=-1.0hPa 405.100 MHz Type=RS41-SG Radiosonde auto_rx v1.5.6
TODDY2-14U24200672022-12-05 23:36:4754.9324-1.92455198337222Clb=5.0m/s calibration 60% 405.10MHz Type=RS41-SG Details on http://radiosondy.info
M7TDM-1U24200672022-12-05 23:36:4154.9328-1.92447185287201Clb=6.8m/s t=-36.4C h=24.6% p=-1.0hPa 405.100 MHz Type=RS41-SG Radiosonde auto_rx v1.5.6
TODDY2-14U24200672022-12-05 23:36:2054.934-1.92358192287114Clb=5.6m/s calibration 54% Type=RS41-SG Details on http://radiosondy.info
M7TDM-1U24200672022-12-05 23:36:0054.9348-1.92302206197030Clb=3.2m/s t=-35.2C h=29.9% p=-1.0hPa 405.100 MHz Type=RS41-SG Radiosonde auto_rx v1.5.6
TODDY2-14U24200672022-12-05 23:35:5854.9349-1.92298201287025Clb=5.9m/s calibration 45% Type=RS41 batt=2.7V Details on http://radiosondy.info
TODDY2-14U24200672022-12-05 23:35:3854.9361-1.92178206286908Clb=4.1m/s calibration 31% Type=RS41 Details on http://radiosondy.info
M7TDM-1U24200672022-12-05 23:35:3054.9366-1.92129198376866Clb=3.7m/s t=-34.0C h=27.5% p=-1.0hPa 405.100 MHz Type=RS41-SG Radiosonde auto_rx v1.5.6
TODDY2-14U24200672022-12-05 23:35:2254.9372-1.92077218306826Clb=7.4m/s calibration 21% Type=RS41 Details on http://radiosondy.info
M7TDM-1U24200672022-12-05 23:35:0054.9386-1.91957192306703Clb=5.3m/s t=-33.1C h=45.5% p=-1.0hPa 405.100 MHz Type=RS41-SG Radiosonde auto_rx v1.5.6
TODDY2-14U24200672022-12-05 23:34:3954.9399-1.91868185316618Clb=6.8m/s calibration 13% Type=RS41 batt=2.7V Details on http://radiosondy.info
M7TDM-1U24200672022-12-05 23:34:3054.9405-1.91876185376559Clb=5.8m/s t=-31.8C h=34.4% p=-1.0hPa 405.100 MHz Type=RS41-SG Radiosonde auto_rx v1.5.6
M7TDM-1U24200672022-12-05 23:34:0054.9426-1.91747208336388Clb=7.0m/s t=-30.8C h=48.8% p=-1.0hPa 405.100 MHz Type=RS41-SG Radiosonde auto_rx v1.5.6
M0VNA-14U24200672022-12-05 23:33:3754.9459-1.91556188356169Clb=6.6m/s t=-29.3C h=53.8% p=-1.0hPa 405.101 MHz Type=RS41-SG Radiosonde auto_rx v1.5.8
M7TDM-1U24200672022-12-05 23:33:2054.9476-1.91503163356076Clb=6.1m/s t=-28.6C h=54.1% p=-1.0hPa 405.100 MHz Type=RS41-SG Radiosonde auto_rx v1.5.6
M7TDM-1U24200672022-12-05 23:32:3954.9499-1.91354199415926Clb=4.4m/s t=-27.9C h=64.4% p=-1.0hPa 405.100 MHz Type=RS41-SG Radiosonde auto_rx v1.5.6
M0VNA-14U24200672022-12-05 23:32:3854.9505-1.91313195435898Clb=4.1m/s t=-27.9C h=70.2% p=-1.0hPa 405.101 MHz Type=RS41-SG Radiosonde auto_rx v1.5.8
M7TDM-1U24200672022-12-05 23:32:0054.9522-1.91279184315763Clb=4.4m/s t=-27.4C h=72.9% p=-1.0hPa 405.100 MHz Type=RS41-SG Radiosonde auto_rx v1.5.6
M7TDM-1U24200672022-12-05 23:31:3054.9542-1.91294174115608Clb=5.5m/s t=-26.0C h=29.2% p=-1.0hPa 405.100 MHz Type=RS41-SG Radiosonde auto_rx v1.5.6
M7TDM-1U24200672022-12-05 23:31:0054.9561-1.91277191175446Clb=4.8m/s t=-24.5C h=25.5% p=-1.0hPa 405.100 MHz Type=RS41-SG Radiosonde auto_rx v1.5.6
M0VNA-14U24200672022-12-05 23:30:3054.9581-1.91282171285270Clb=6.6m/s t=-22.8C h=16.4% p=-1.0hPa 405.101 MHz Type=RS41-SG Radiosonde auto_rx v1.5.8
M7TDM-1U24200672022-12-05 23:30:0054.9597-1.91277181265124Clb=5.2m/s t=-21.6C h=9.4% p=-1.0hPa 405.100 MHz Type=RS41-SG Radiosonde auto_rx v1.5.6
M7TDM-1U24200672022-12-05 23:29:3054.9621-1.91256192334957Clb=4.5m/s t=-20.0C h=12.9% p=-1.0hPa 405.100 MHz Type=RS41-SG Radiosonde auto_rx v1.5.6
M0VNA-14U24200672022-12-05 23:29:1054.9644-1.91269180304729Clb=6.4m/s t=-18.3C h=7.1% p=-1.0hPa 405.101 MHz Type=RS41-SG Radiosonde auto_rx v1.5.8
M7TDM-1U24200672022-12-05 23:28:3754.9659-1.91256162224622Clb=7.3m/s t=-17.6C h=7.1% p=-1.0hPa 405.100 MHz Type=RS41-SG Radiosonde auto_rx v1.5.6
M7TDM-1U24200672022-12-05 23:28:0054.9681-1.91223178414455Clb=4.9m/s t=-16.5C h=6.5% p=-1.0hPa 405.100 MHz Type=RS41-SG Radiosonde auto_rx v1.5.6
M7TDM-1U24200672022-12-05 23:27:3054.9703-1.91131217174289Clb=4.3m/s t=-15.4C h=7.0% p=-1.0hPa 405.100 MHz Type=RS41-SG Radiosonde auto_rx v1.5.6
M0VNA-14U24200672022-12-05 23:27:0054.9728-1.91117192284068Clb=6.4m/s t=-14.2C h=7.9% p=-1.0hPa 405.101 MHz Type=RS41-SG Radiosonde auto_rx v1.5.8
M7TDM-1U24200672022-12-05 23:26:3054.974-1.91083176333965Clb=4.8m/s t=-13.5C h=7.9% p=-1.0hPa 405.100 MHz Type=RS41-SG Radiosonde auto_rx v1.5.6
M0VNA-14U24200672022-12-05 23:26:0054.9757-1.91044158243789Clb=5.8m/s t=-273.0C h=-1.0% p=-1.0hPa 405.101 MHz Type=RS41-SG Radiosonde auto_rx v1.5.8
M7TDM-1U24200672022-12-05 23:25:3054.9776-1.91032178313626Clb=4.6m/s t=-11.3C h=6.1% p=-1.0hPa 405.100 MHz Type=RS41-SG Radiosonde auto_rx v1.5.6
M7TDM-1U24200672022-12-05 23:25:0254.9794-1.91065181263463Clb=4.8m/s t=-10.5C h=10.6% p=-1.0hPa 405.100 MHz Type=RS41-SG Radiosonde auto_rx v1.5.6
M7TDM-1U24200672022-12-05 23:24:3454.9813-1.91147179203283Clb=5.6m/s t=-9.6C h=17.7% p=-1.0hPa 405.100 MHz Type=RS41-SG Radiosonde auto_rx v1.5.6
M7TDM-1U24200672022-12-05 23:24:0054.983-1.91078219203107Clb=7.2m/s t=-8.5C h=12.2% p=-1.0hPa 405.100 MHz Type=RS41-SG Radiosonde auto_rx v1.5.6
M7TDM-1U24200672022-12-05 23:23:3054.9849-1.90946226262944Clb=6.1m/s t=-8.5C h=27.4% p=-1.0hPa 405.100 MHz Type=RS41-SG Radiosonde auto_rx v1.5.6
M7TDM-1U24200672022-12-05 23:23:0054.987-1.90754203332789Clb=6.4m/s t=-7.6C h=16.8% p=-1.0hPa 405.100 MHz Type=RS41-SG Radiosonde auto_rx v1.5.6
M7TDM-1U24200672022-12-05 23:22:3054.9891-1.90613191282621Clb=4.3m/s t=-7.3C h=19.9% p=-1.0hPa 405.100 MHz Type=RS41-SG Radiosonde auto_rx v1.5.6
M7TDM-1U24200672022-12-05 23:22:0054.9911-1.90372200332464Clb=6.8m/s t=-6.5C h=12.7% p=-1.0hPa 405.100 MHz Type=RS41-SG Radiosonde auto_rx v1.5.6
M7TDM-1U24200672022-12-05 23:21:3054.993-1.90083201242293Clb=4.6m/s t=-6.4C h=15.2% p=-1.0hPa 405.100 MHz Type=RS41-SG Radiosonde auto_rx v1.5.6
M7TDM-1U24200672022-12-05 23:21:0054.9946-1.8988221222125Clb=4.8m/s t=-6.3C h=16.7% p=-1.0hPa 405.100 MHz Type=RS41-SG Radiosonde auto_rx v1.5.6
M7TDM-1U24200672022-12-05 23:20:3154.9962-1.89583217391951Clb=5.9m/s t=-6.3C h=72.2% p=-1.0hPa 405.100 MHz Type=RS41-SG Radiosonde auto_rx v1.5.6
M7TDM-1U24200672022-12-05 23:20:0054.9991-1.89262210501773Clb=8.0m/s t=-5.3C h=87.5% p=-1.0hPa 405.100 MHz Type=RS41-SG Radiosonde auto_rx v1.5.6
M7TDM-1U24200672022-12-05 23:19:3055.0023-1.88931211501594Clb=5.7m/s t=-4.6C h=93.0% p=-1.0hPa 405.100 MHz Type=RS41-SG Radiosonde auto_rx v1.5.6
M7TDM-1U24200672022-12-05 23:19:0055.0054-1.88669214411427Clb=5.4m/s t=-3.3C h=89.8% p=-1.0hPa 405.100 MHz Type=RS41-SG Radiosonde auto_rx v1.5.6
M7TDM-1U24200672022-12-05 23:18:3055.0081-1.88457214371268Clb=7.3m/s t=-3.1C h=96.3% p=-1.0hPa 405.100 MHz Type=RS41-SG Radiosonde auto_rx v1.5.6
M7TDM-1U24200672022-12-05 23:18:0255.0099-1.88262218311108Clb=6.2m/s t=-2.4C h=-1.0% p=-1.0hPa 405.100 MHz Type=RS41 Radiosonde auto_rx v1.5.6